Time;durP1;ratioP1;P1;durP2;ratioP2;P2;SDS_P1;SDS_P2;PMS_P1;PMS_P2;Temp;Humidity;BMP_temperature;BMP_pressure;BME280_temperature;BME280_humidity;BME280_pressure;Samples;Min_cycle;Max_cycle;Signal;HPM_P1;HPM_P2
2022/09/26 00:00:40;;;;;;;4.65;1.88;;;11.70;99.90;;;;;;5054683;28;20377;-71
2022/09/26 00:03:06;;;;;;;7.22;2.40;;;11.80;99.90;;;;;;5061475;28;20091;-70
2022/09/26 00:05:33;;;;;;;5.50;2.08;;;11.70;99.90;;;;;;5054901;28;20045;-70
2022/09/26 00:07:58;;;;;;;7.95;2.22;;;11.70;99.90;;;;;;5054816;28;20039;-71
2022/09/26 00:10:24;;;;;;;7.35;2.38;;;11.80;99.90;;;;;;5033934;28;20116;-71
2022/09/26 00:12:50;;;;;;;4.97;1.92;;;11.80;99.90;;;;;;5035008;28;20041;-70
2022/09/26 00:15:15;;;;;;;4.95;2.00;;;11.80;99.90;;;;;;5054718;28;20093;-71
2022/09/26 00:17:41;;;;;;;4.45;2.10;;;11.80;99.90;;;;;;5054882;28;20045;-70
2022/09/26 00:20:07;;;;;;;6.43;1.85;;;11.70;99.90;;;;;;5037877;28;20493;-70
2022/09/26 00:22:33;;;;;;;4.07;1.90;;;11.70;99.90;;;;;;5052366;28;20542;-70
2022/09/26 00:24:58;;;;;;;4.85;1.90;;;11.70;99.90;;;;;;5054626;28;20033;-70
2022/09/26 00:27:24;;;;;;;5.78;2.08;;;11.70;99.90;;;;;;5054750;28;20036;-70
2022/09/26 00:29:49;;;;;;;5.90;2.20;;;11.70;99.90;;;;;;5054464;28;20045;-71
2022/09/26 00:32:15;;;;;;;7.82;2.38;;;11.70;99.90;;;;;;5052475;28;20090;-71
2022/09/26 00:34:40;;;;;;;5.80;2.30;;;11.70;99.90;;;;;;5053537;28;20048;-71
2022/09/26 00:37:06;;;;;;;6.75;2.22;;;11.70;99.90;;;;;;5054626;28;20048;-71
2022/09/26 00:39:31;;;;;;;5.78;2.13;;;11.70;99.90;;;;;;5053385;28;20041;-70
2022/09/26 00:41:57;;;;;;;6.20;2.58;;;11.70;99.90;;;;;;5053385;28;20048;-70
2022/09/26 00:44:49;;;;;;;6.95;2.20;;;11.70;99.90;;;;;;5037201;28;20405;-70
2022/09/26 00:47:31;;;;;;;5.50;2.33;;;11.70;99.90;;;;;;5054393;28;20401;-70
2022/09/26 00:50:13;;;;;;;5.30;2.13;;;11.70;99.90;;;;;;5054021;28;20053;-71
2022/09/26 00:52:44;;;;;;;4.00;2.20;;;11.70;99.90;;;;;;5035602;28;20045;-71
2022/09/26 00:55:13;;;;;;;6.60;2.40;;;11.70;99.90;;;;;;5053996;28;20044;-70
2022/09/26 00:57:47;;;;;;;6.22;1.98;;;11.70;99.90;;;;;;5053443;28;20052;-70
2022/09/26 01:00:16;;;;;;;5.63;2.28;;;11.70;99.90;;;;;;5051611;28;20041;-71
2022/09/26 01:02:44;;;;;;;7.55;2.20;;;11.70;99.90;;;;;;5051422;28;20041;-70
2022/09/26 01:05:13;;;;;;;6.85;2.50;;;11.70;99.90;;;;;;5070147;28;20087;-70
2022/09/26 01:07:39;;;;;;;5.35;2.15;;;11.80;99.90;;;;;;5066640;28;20049;-70
2022/09/26 01:10:05;;;;;;;5.75;1.88;;;11.70;99.90;;;;;;5035972;28;20048;-70
2022/09/26 01:12:34;;;;;;;4.57;2.20;;;11.70;99.90;;;;;;5052821;28;20037;-71
2022/09/26 01:15:00;;;;;;;5.72;2.30;;;11.70;99.90;;;;;;5052937;28;20441;-71
2022/09/26 01:17:26;;;;;;;5.78;2.15;;;11.70;99.90;;;;;;5053956;28;20400;-71
2022/09/26 01:20:13;;;;;;;5.03;1.80;;;11.60;99.90;;;;;;5053489;28;20412;-70
2022/09/26 01:22:41;;;;;;;6.70;2.38;;;11.60;99.90;;;;;;5051970;28;20484;-70
2022/09/26 01:25:46;;;;;;;5.00;2.08;;;11.60;99.90;;;;;;5053643;28;20523;-70
2022/09/26 01:28:27;;;;;;;4.90;2.10;;;11.60;99.90;;;;;;5053417;28;20041;-71
2022/09/26 01:31:20;;;;;;;4.53;1.67;;;11.60;99.90;;;;;;5052500;28;20136;-70
2022/09/26 01:34:16;;;;;;;5.28;1.92;;;11.60;99.90;;;;;;5035050;28;20045;-70
2022/09/26 01:37:04;;;;;;;5.00;1.63;;;11.60;99.90;;;;;;5034135;28;20123;-71
2022/09/26 01:40:06;;;;;;;5.90;1.58;;;11.60;99.90;;;;;;5052448;28;20111;-71
2022/09/26 01:42:52;;;;;;;10.13;2.05;;;11.60;99.90;;;;;;5053014;28;20051;-71
2022/09/26 01:45:21;;;;;;;5.35;2.03;;;11.60;99.90;;;;;;5069641;28;20111;-71
2022/09/26 01:48:02;;;;;;;6.55;1.70;;;11.70;99.90;;;;;;5052300;28;20492;-71
2022/09/26 01:50:37;;;;;;;8.35;1.95;;;11.70;99.90;;;;;;5050982;28;20045;-70
2022/09/26 01:53:15;;;;;;;6.25;1.67;;;11.70;99.90;;;;;;5052890;28;20484;-71
2022/09/26 01:55:52;;;;;;;5.63;1.80;;;11.70;99.90;;;;;;5052103;28;20041;-71
2022/09/26 01:58:27;;;;;;;5.88;2.05;;;11.70;99.90;;;;;;5049257;28;20132;-71
2022/09/26 02:00:56;;;;;;;4.57;1.70;;;11.70;99.90;;;;;;5054238;28;20037;-71
2022/09/26 02:03:27;;;;;;;5.75;1.85;;;11.70;99.90;;;;;;5052630;28;20033;-71
2022/09/26 02:05:58;;;;;;;9.88;1.83;;;11.70;99.90;;;;;;5052163;28;20052;-71
2022/09/26 02:08:35;;;;;;;7.45;1.90;;;11.70;99.90;;;;;;5050846;28;20045;-71
2022/09/26 02:11:12;;;;;;;7.28;1.80;;;11.80;99.90;;;;;;5051513;28;20049;-71
2022/09/26 02:13:50;;;;;;;7.15;1.80;;;11.70;99.90;;;;;;5052445;28;20121;-71
2022/09/26 02:16:45;;;;;;;6.20;1.98;;;11.70;99.90;;;;;;5052748;28;20049;-71
2022/09/26 02:19:14;;;;;;;5.43;1.85;;;11.70;99.90;;;;;;5050436;28;20057;-71
2022/09/26 02:21:41;;;;;;;8.35;2.13;;;11.70;99.90;;;;;;5067825;28;20086;-71
2022/09/26 02:24:06;;;;;;;5.20;1.83;;;11.70;99.90;;;;;;5052522;28;20041;-71
2022/09/26 02:26:32;;;;;;;6.30;1.67;;;11.70;99.90;;;;;;5050731;28;20040;-71
2022/09/26 02:28:59;;;;;;;7.45;1.88;;;11.70;99.90;;;;;;5035927;28;20040;-71
2022/09/26 02:31:29;;;;;;;4.97;1.63;;;11.70;99.90;;;;;;5034854;28;20089;-70
2022/09/26 02:33:54;;;;;;;5.88;1.90;;;11.70;99.90;;;;;;5052144;28;20045;-71
2022/09/26 02:36:21;;;;;;;7.28;2.20;;;11.70;99.90;;;;;;5050385;28;20037;-71
2022/09/26 02:38:47;;;;;;;6.60;2.20;;;11.70;99.90;;;;;;5051389;28;20445;-71
2022/09/26 02:41:21;;;;;;;8.38;2.08;;;11.80;99.90;;;;;;5051071;28;20037;-71
2022/09/26 02:43:55;;;;;;;6.15;2.03;;;11.70;99.90;;;;;;5035413;28;20473;-71
2022/09/26 02:46:21;;;;;;;7.80;2.08;;;11.70;99.90;;;;;;5051239;28;20037;-71
2022/09/26 02:49:05;;;;;;;7.03;2.75;;;11.70;99.90;;;;;;5050989;28;20045;-71
2022/09/26 02:51:59;;;;;;;5.32;2.05;;;11.70;99.90;;;;;;5051128;28;20037;-70
2022/09/26 02:54:38;;;;;;;7.88;2.10;;;11.70;99.90;;;;;;5051868;28;20496;-70
2022/09/26 02:57:33;;;;;;;8.13;2.20;;;11.70;99.90;;;;;;5051571;28;20400;-71
2022/09/26 03:00:08;;;;;;;8.60;2.15;;;11.70;99.90;;;;;;5066717;28;20044;-71
2022/09/26 03:02:45;;;;;;;6.63;2.42;;;11.60;99.90;;;;;;5050973;28;20041;-70
2022/09/26 03:05:19;;;;;;;9.45;2.60;;;11.70;99.90;;;;;;5051736;28;20075;-70
2022/09/26 03:08:02;;;;;;;6.18;2.78;;;11.70;99.90;;;;;;5033662;28;20481;-70
2022/09/26 03:10:29;;;;;;;8.55;2.35;;;11.70;99.90;;;;;;5067768;28;20041;-70
2022/09/26 03:13:02;;;;;;;6.28;2.50;;;11.70;99.90;;;;;;5051126;28;20075;-70
2022/09/26 03:15:28;;;;;;;;;;;11.70;99.90;;;;;;5035245;28;20140;-71
2022/09/26 03:17:57;;;;;;;5.45;2.90;;;11.70;99.90;;;;;;5047468;28;19917;-71
2022/09/26 03:20:24;;;;;;;7.55;3.15;;;11.60;99.90;;;;;;5031831;28;20167;-71
2022/09/26 03:22:50;;;;;;;6.80;2.92;;;11.60;99.90;;;;;;5048397;28;20044;-71
2022/09/26 03:25:20;;;;;;;7.22;2.80;;;11.60;99.90;;;;;;5051573;28;20079;-71
2022/09/26 03:27:46;;;;;;;8.65;3.15;;;11.60;99.90;;;;;;5051856;28;20059;-70
2022/09/26 03:30:14;;;;;;;8.32;3.15;;;11.70;99.90;;;;;;5051556;28;20044;-70
2022/09/26 03:32:39;;;;;;;8.05;3.13;;;11.70;99.90;;;;;;5033970;28;20040;-70
2022/09/26 03:35:07;;;;;;;7.93;3.30;;;11.70;99.90;;;;;;5051481;28;20044;-70
2022/09/26 03:37:35;;;;;;;7.10;3.58;;;11.60;99.90;;;;;;5050813;28;20406;-70
2022/09/26 03:40:04;;;;;;;9.23;3.78;;;11.70;99.90;;;;;;5034824;28;20489;-71
2022/09/26 03:42:32;;;;;;;7.28;3.53;;;11.60;99.90;;;;;;5050258;28;20554;-70
2022/09/26 03:45:01;;;;;;;8.57;4.00;;;11.70;99.90;;;;;;5034777;28;20045;-70
2022/09/26 03:47:27;;;;;;;6.85;3.33;;;11.60;99.90;;;;;;5051494;28;20094;-70
2022/09/26 03:49:53;;;;;;;10.88;4.35;;;11.60;99.90;;;;;;5034842;28;20048;-71
2022/09/26 03:52:20;;;;;;;8.30;3.67;;;11.60;99.90;;;;;;5045950;28;20041;-70
2022/09/26 03:54:45;;;;;;;9.07;4.00;;;11.60;99.90;;;;;;5042800;28;20423;-70
2022/09/26 03:57:12;;;;;;;7.43;3.47;;;11.70;99.90;;;;;;5029968;28;20148;-70
2022/09/26 03:59:38;;;;;;;7.13;3.60;;;11.60;99.90;;;;;;5050649;28;20492;-70
2022/09/26 04:02:04;;;;;;;9.13;4.50;;;11.70;99.90;;;;;;5027050;28;20032;-70
2022/09/26 04:04:31;;;;;;;8.73;3.95;;;11.70;99.90;;;;;;5038244;28;20037;-70
2022/09/26 04:06:56;;;;;;;7.47;3.65;;;11.60;99.90;;;;;;5053791;28;20563;-71
2022/09/26 04:09:23;;;;;;;8.63;3.58;;;11.60;99.90;;;;;;5038259;28;20048;-70
2022/09/26 04:11:49;;;;;;;7.45;3.75;;;11.70;99.90;;;;;;5050631;28;20073;-70
2022/09/26 04:14:16;;;;;;;7.43;3.72;;;11.60;99.90;;;;;;5054676;28;20448;-70
2022/09/26 04:16:42;;;;;;;9.25;3.83;;;11.60;99.90;;;;;;5054682;28;20047;-70
2022/09/26 04:19:08;;;;;;;9.95;4.20;;;11.60;99.90;;;;;;5054567;28;20041;-70
2022/09/26 04:21:34;;;;;;;7.40;3.38;;;11.60;99.90;;;;;;5071218;28;20455;-70
2022/09/26 04:24:01;;;;;;;8.43;3.75;;;11.60;99.90;;;;;;5037908;28;20556;-70
2022/09/26 04:26:27;;;;;;;7.95;3.97;;;11.60;99.90;;;;;;5054555;28;20075;-70
2022/09/26 04:28:55;;;;;;;8.10;4.43;;;11.60;99.90;;;;;;5053182;28;20068;-70
2022/09/26 04:31:22;;;;;;;7.53;3.70;;;11.60;99.90;;;;;;5037155;28;20119;-70
2022/09/26 04:33:48;;;;;;;8.05;4.10;;;11.60;99.90;;;;;;5053027;28;20451;-70
2022/09/26 04:36:14;;;;;;;8.55;4.40;;;11.60;99.90;;;;;;5038291;28;20383;-70
2022/09/26 04:38:40;;;;;;;9.40;4.15;;;11.60;99.90;;;;;;5047758;28;20591;-70
2022/09/26 04:41:11;;;;;;;8.60;4.13;;;11.60;99.90;;;;;;5053589;28;20041;-70
2022/09/26 04:43:37;;;;;;;9.02;3.90;;;11.60;99.90;;;;;;5035406;28;20045;-70
2022/09/26 04:46:20;;;;;;;8.68;4.18;;;11.60;99.90;;;;;;5051731;28;20041;-69
2022/09/26 04:48:46;;;;;;;;;;;11.60;99.90;;;;;;5037244;28;20045;-70
2022/09/26 04:51:13;;;;;;;7.10;3.80;;;11.50;99.90;;;;;;5053027;28;19949;-70
2022/09/26 04:53:40;;;;;;;6.57;3.80;;;11.50;99.90;;;;;;5045813;28;20047;-70
2022/09/26 04:56:08;;;;;;;9.15;3.88;;;11.60;99.90;;;;;;5033492;28;20498;-70
2022/09/26 04:58:36;;;;;;;10.57;4.30;;;11.60;99.90;;;;;;5036964;28;20049;-70
2022/09/26 05:01:04;;;;;;;10.18;4.22;;;11.60;99.90;;;;;;5053095;28;20493;-70
2022/09/26 05:03:30;;;;;;;10.63;4.85;;;11.60;99.90;;;;;;5052617;28;20044;-70
2022/09/26 05:05:56;;;;;;;8.18;4.05;;;11.60;99.90;;;;;;5051688;28;20043;-70
2022/09/26 05:08:22;;;;;;;9.30;4.93;;;11.60;99.90;;;;;;5052123;28;20037;-70
2022/09/26 05:10:53;;;;;;;7.30;5.03;;;11.60;99.90;;;;;;5052828;28;20116;-70
2022/09/26 05:13:20;;;;;;;8.55;4.80;;;11.60;99.90;;;;;;5050815;28;20040;-70
2022/09/26 05:15:53;;;;;;;8.55;4.55;;;11.60;99.90;;;;;;5044812;28;20123;-70
2022/09/26 05:18:18;;;;;;;9.82;4.60;;;11.60;99.90;;;;;;5034472;28;20513;-70
2022/09/26 05:20:47;;;;;;;8.95;5.15;;;11.60;99.90;;;;;;5042843;28;20037;-70
2022/09/26 05:26:18;;;;;;;9.02;4.50;;;11.60;99.90;;;;;;5052541;28;20445;-70
2022/09/26 05:28:43;;;;;;;8.85;4.90;;;11.60;99.90;;;;;;5033905;28;20132;-70
2022/09/26 05:31:08;;;;;;;8.95;4.93;;;11.60;99.90;;;;;;5052518;28;20079;-70
2022/09/26 05:33:37;;;;;;;12.13;5.00;;;11.50;99.90;;;;;;5051917;28;20411;-70
2022/09/26 05:36:04;;;;;;;10.95;4.88;;;11.50;99.90;;;;;;5051449;28;20542;-70
2022/09/26 05:38:29;;;;;;;10.23;5.35;;;11.50;99.90;;;;;;5068101;28;20045;-70
2022/09/26 05:40:55;;;;;;;8.20;5.30;;;11.50;99.90;;;;;;5051726;28;20047;-71
2022/09/26 05:43:26;;;;;;;10.82;5.50;;;11.50;99.90;;;;;;5049706;28;20159;-71
2022/09/26 05:45:55;;;;;;;8.07;4.82;;;11.50;99.90;;;;;;5051752;28;20153;-71
2022/09/26 05:48:21;;;;;;;9.23;5.57;;;11.50;99.90;;;;;;5038702;28;20464;-70
2022/09/26 05:50:47;;;;;;;10.27;5.38;;;11.60;99.90;;;;;;5034387;28;20125;-70
2022/09/26 05:53:12;;;;;;;10.27;4.88;;;11.50;99.90;;;;;;5024868;28;20491;-70
2022/09/26 05:55:38;;;;;;;11.45;5.55;;;11.50;99.90;;;;;;5050542;28;20053;-71
2022/09/26 05:58:05;;;;;;;9.23;5.22;;;11.50;99.90;;;;;;5038745;28;20043;-71
2022/09/26 06:00:31;;;;;;;11.77;5.18;;;11.50;99.90;;;;;;5045336;28;20052;-71
2022/09/26 06:02:57;;;;;;;7.57;4.95;;;11.40;99.90;;;;;;5044958;28;20486;-70
2022/09/26 06:05:24;;;;;;;9.40;5.50;;;11.40;99.90;;;;;;5041869;28;20043;-70
2022/09/26 06:07:50;;;;;;;9.63;5.40;;;11.40;99.90;;;;;;5054921;28;20032;-70
2022/09/26 06:10:16;;;;;;;9.45;5.10;;;11.40;99.90;;;;;;5048919;28;20087;-70
2022/09/26 06:12:42;;;;;;;10.90;5.22;;;11.50;99.90;;;;;;5032924;28;20482;-71
2022/09/26 06:15:08;;;;;;;12.35;5.10;;;11.40;99.90;;;;;;5055116;28;20053;-71
2022/09/26 06:17:34;;;;;;;9.55;4.45;;;11.40;99.90;;;;;;5049717;28;20041;-70
2022/09/26 06:20:00;;;;;;;8.38;4.95;;;11.50;99.90;;;;;;5034528;28;20103;-71
2022/09/26 06:22:26;;;;;;;11.60;4.90;;;11.50;99.90;;;;;;5042099;28;20034;-70
2022/09/26 06:24:51;;;;;;;10.05;4.50;;;11.50;99.90;;;;;;5049993;28;20397;-71
2022/09/26 06:27:17;;;;;;;9.55;5.07;;;11.50;99.90;;;;;;5049649;28;20052;-71
2022/09/26 06:29:43;;;;;;;8.38;4.57;;;11.40;99.90;;;;;;5049340;28;20063;-70
2022/09/26 06:32:08;;;;;;;9.20;4.78;;;11.40;99.90;;;;;;5049902;28;20411;-71
2022/09/26 06:34:34;;;;;;;9.15;4.53;;;11.40;99.90;;;;;;5046237;28;20032;-71
2022/09/26 06:36:59;;;;;;;8.63;5.47;;;11.40;99.90;;;;;;5051239;28;20140;-70
2022/09/26 06:39:34;;;;;;;9.63;4.60;;;11.40;99.90;;;;;;5050668;28;20037;-71
2022/09/26 06:42:06;;;;;;;8.40;4.40;;;11.40;99.90;;;;;;5043799;28;20116;-71
2022/09/26 06:44:32;;;;;;;7.22;4.13;;;11.40;99.90;;;;;;5036632;28;20036;-70
2022/09/26 06:47:01;;;;;;;7.80;4.03;;;11.40;99.90;;;;;;5038686;28;20045;-71
2022/09/26 06:49:27;;;;;;;9.05;4.20;;;11.40;99.90;;;;;;5015477;28;20038;-71
2022/09/26 06:51:53;;;;;;;7.72;4.32;;;11.40;99.90;;;;;;5050019;28;20037;-71
2022/09/26 06:54:19;;;;;;;7.78;4.50;;;11.40;99.90;;;;;;5048583;28;20097;-70
2022/09/26 06:56:45;;;;;;;7.68;3.88;;;11.40;99.90;;;;;;5050824;28;20444;-70
2022/09/26 06:59:11;;;;;;;7.10;3.58;;;11.40;99.90;;;;;;5043915;28;20256;-71
2022/09/26 07:01:37;;;;;;;8.75;4.03;;;11.40;99.90;;;;;;5045835;28;20051;-70
2022/09/26 07:04:03;;;;;;;8.27;3.95;;;11.40;99.90;;;;;;5031092;28;20036;-70
2022/09/26 07:06:29;;;;;;;8.35;3.97;;;11.40;99.90;;;;;;5042821;28;20033;-70
2022/09/26 07:08:55;;;;;;;8.50;4.18;;;11.40;99.90;;;;;;5047846;28;20037;-71
2022/09/26 07:11:21;;;;;;;10.38;3.95;;;11.40;99.90;;;;;;5049905;28;20033;-71
2022/09/26 07:13:47;;;;;;;6.53;3.50;;;11.30;99.90;;;;;;5049071;28;20105;-70
2022/09/26 07:16:13;;;;;;;9.13;3.95;;;11.40;99.90;;;;;;5046050;28;20742;-69
2022/09/26 07:18:38;;;;;;;8.75;4.00;;;11.30;99.90;;;;;;5040437;28;20099;-75
2022/09/26 07:21:05;;;;;;;9.57;4.32;;;11.30;99.90;;;;;;5064112;28;20037;-69
2022/09/26 07:23:31;;;;;;;7.85;3.67;;;11.30;99.90;;;;;;5048513;28;20057;-70
2022/09/26 07:25:57;;;;;;;8.07;3.65;;;11.30;99.90;;;;;;5031775;28;20037;-70
2022/09/26 07:28:24;;;;;;;9.18;3.53;;;11.30;99.90;;;;;;5048284;28;20044;-70
2022/09/26 07:30:50;;;;;;;8.38;3.25;;;11.30;99.90;;;;;;5045880;28;20041;-70
2022/09/26 07:33:15;;;;;;;11.07;3.92;;;11.30;99.90;;;;;;5050007;28;20037;-71
2022/09/26 07:35:43;;;;;;;10.95;4.05;;;11.30;99.90;;;;;;5049613;28;20409;-70
2022/09/26 07:38:09;;;;;;;9.13;3.95;;;11.30;99.90;;;;;;5053004;28;20056;-70
2022/09/26 07:40:34;;;;;;;8.77;3.47;;;11.20;99.90;;;;;;5034555;28;20033;-70
2022/09/26 07:43:01;;;;;;;7.25;3.85;;;11.20;99.90;;;;;;5037665;28;20037;-70
2022/09/26 07:50:58;;;;;;;7.20;3.45;;;11.20;99.90;;;;;;5069886;28;20040;-70
2022/09/26 07:53:27;;;;;;;11.55;3.60;;;11.30;99.90;;;;;;5051030;28;20040;-70
2022/09/26 07:56:05;;;;;;;7.13;2.80;;;11.20;99.90;;;;;;5053278;28;20044;-70
2022/09/26 07:58:32;;;;;;;6.80;3.35;;;11.30;99.90;;;;;;5070498;28;20116;-70
2022/09/26 08:00:58;;;;;;;7.97;3.72;;;11.20;99.90;;;;;;5053375;28;20074;-70
2022/09/26 08:03:27;;;;;;;9.43;3.25;;;11.20;99.90;;;;;;5066490;28;20424;-70
2022/09/26 08:05:59;;;;;;;6.95;3.00;;;11.30;99.90;;;;;;5053072;28;20497;-70
2022/09/26 08:08:25;;;;;;;5.53;2.88;;;11.30;99.90;;;;;;5053204;28;20612;-70
2022/09/26 08:10:51;;;;;;;7.22;2.97;;;11.40;99.90;;;;;;5036009;28;20052;-70
2022/09/26 08:13:16;;;;;;;7.03;2.88;;;11.40;99.90;;;;;;5053098;28;20045;-70
2022/09/26 08:15:42;;;;;;;8.88;4.22;;;11.40;99.90;;;;;;5051224;28;20087;-70
2022/09/26 08:18:08;;;;;;;7.82;3.00;;;11.40;99.90;;;;;;5053854;28;20048;-70
2022/09/26 08:20:34;;;;;;;8.20;2.90;;;11.30;99.90;;;;;;5050148;28;20389;-70
2022/09/26 08:23:00;;;;;;;6.50;2.78;;;11.40;99.90;;;;;;5033105;28;20040;-70
2022/09/26 08:25:25;;;;;;;7.95;3.03;;;11.40;99.90;;;;;;5036479;28;20048;-70
2022/09/26 08:27:52;;;;;;;6.15;2.88;;;11.40;99.90;;;;;;5052260;28;20118;-70
2022/09/26 08:30:18;;;;;;;8.00;2.85;;;11.40;99.90;;;;;;5037029;28;20037;-70
2022/09/26 08:32:51;;;;;;;9.48;3.85;;;11.40;99.90;;;;;;5053487;28;20457;-70
2022/09/26 08:35:17;;;;;;;6.53;3.03;;;11.40;99.90;;;;;;5053228;28;20053;-70
2022/09/26 08:37:43;;;;;;;7.30;3.20;;;11.40;99.90;;;;;;5053485;28;20051;-70
2022/09/26 08:40:09;;;;;;;7.53;3.03;;;11.30;99.90;;;;;;5050670;28;20041;-71
2022/09/26 08:42:55;;;;;;;9.35;3.55;;;11.50;99.90;;;;;;5053044;28;20032;-71
2022/09/26 08:48:25;;;;;;;7.90;3.08;;;11.50;99.90;;;;;;5066492;28;20037;-70
2022/09/26 08:50:58;;;;;;;9.00;3.10;;;11.50;99.90;;;;;;5068164;28;20426;-70
2022/09/26 08:53:56;;;;;;;7.28;3.25;;;11.50;99.90;;;;;;5052673;28;20036;-70
2022/09/26 08:56:35;;;;;;;8.18;3.03;;;11.50;99.90;;;;;;5034347;28;20090;-70
2022/09/26 08:59:03;;;;;;;11.48;3.30;;;11.50;99.90;;;;;;5052726;28;20550;-70
2022/09/26 09:01:33;;;;;;;6.45;3.15;;;11.60;99.90;;;;;;5068677;28;20036;-70
2022/09/26 09:04:34;;;;;;;6.55;3.03;;;11.60;99.90;;;;;;5051046;28;20049;-70
2022/09/26 09:07:09;;;;;;;6.50;3.05;;;11.60;99.90;;;;;;5052440;28;20464;-70
2022/09/26 09:09:36;;;;;;;5.65;2.97;;;11.60;99.90;;;;;;5051343;28;20255;-70
2022/09/26 09:12:25;;;;;;;8.05;3.45;;;11.70;99.90;;;;;;5049022;28;20044;-70
2022/09/26 09:15:05;;;;;;;8.38;3.90;;;11.80;99.90;;;;;;5039651;28;20412;-70
2022/09/26 09:17:41;;;;;;;6.03;2.83;;;11.80;99.90;;;;;;5051873;28;20055;-70
2022/09/26 09:20:33;;;;;;;7.22;3.28;;;11.80;99.90;;;;;;5033975;28;20049;-70
2022/09/26 09:23:32;;;;;;;7.47;3.08;;;11.80;99.90;;;;;;5052107;28;20067;-70
2022/09/26 09:26:20;;;;;;;6.13;3.08;;;11.80;99.90;;;;;;5020246;28;20040;-69
2022/09/26 09:28:54;;;;;;;7.25;2.88;;;11.80;99.90;;;;;;5045395;28;20065;-70
2022/09/26 09:31:21;;;;;;;7.18;3.28;;;11.80;99.90;;;;;;5062841;28;20120;-69
2022/09/26 09:33:51;;;;;;;9.13;3.30;;;11.80;99.90;;;;;;5044439;28;20052;-69
2022/09/26 09:36:24;;;;;;;6.68;3.03;;;11.80;99.90;;;;;;5036003;28;20492;-70
2022/09/26 09:38:52;;;;;;;7.47;3.17;;;11.80;99.90;;;;;;5036455;28;20509;-69
2022/09/26 09:41:30;;;;;;;5.85;2.42;;;11.90;99.90;;;;;;5049124;28;20037;-69
2022/09/26 09:44:04;;;;;;;8.88;3.15;;;11.90;99.90;;;;;;5049729;28;20041;-69
2022/09/26 09:46:41;;;;;;;8.00;3.15;;;12.00;99.90;;;;;;5051577;28;20175;-70
2022/09/26 09:49:07;;;;;;;6.95;3.00;;;12.00;99.90;;;;;;5033872;28;20048;-69
2022/09/26 09:51:44;;;;;;;9.95;2.88;;;12.00;99.90;;;;;;5049848;28;20045;-69
2022/09/26 09:54:42;;;;;;;7.47;3.35;;;12.10;99.90;;;;;;5041982;28;20045;-69
2022/09/26 09:57:19;;;;;;;7.82;3.20;;;12.00;99.90;;;;;;5049208;28;20079;-69
2022/09/26 10:00:06;;;;;;;7.07;3.00;;;12.00;99.90;;;;;;5048259;28;20698;-69
2022/09/26 10:02:42;;;;;;;6.70;3.25;;;12.00;99.90;;;;;;5065229;28;20075;-69
2022/09/26 10:05:44;;;;;;;9.57;3.10;;;12.00;99.90;;;;;;5049559;28;20124;-69
2022/09/26 10:08:15;;;;;;;6.85;2.90;;;12.00;99.90;;;;;;5051910;28;20037;-69
2022/09/26 10:10:41;;;;;;;6.15;3.13;;;12.10;99.90;;;;;;5067921;28;20498;-70
2022/09/26 10:13:09;;;;;;;6.95;3.42;;;12.10;99.90;;;;;;5051225;28;20131;-70
2022/09/26 10:15:40;;;;;;;8.40;4.03;;;12.10;99.90;;;;;;5034713;28;20061;-69
2022/09/26 10:18:17;;;;;;;9.77;3.80;;;12.10;99.90;;;;;;5066832;28;20073;-69
2022/09/26 10:20:56;;;;;;;8.30;3.72;;;12.10;99.90;;;;;;5041762;28;20452;-69
2022/09/26 10:23:40;;;;;;;7.70;3.65;;;12.10;99.90;;;;;;5035110;28;20504;-69
2022/09/26 10:26:08;;;;;;;7.43;3.42;;;12.10;99.90;;;;;;5068024;28;20040;-69
2022/09/26 10:28:46;;;;;;;9.93;3.78;;;12.10;99.90;;;;;;5050853;28;20075;-69
2022/09/26 10:31:28;;;;;;;9.05;3.47;;;12.10;99.90;;;;;;5051082;28;20044;-70
2022/09/26 10:33:59;;;;;;;8.98;3.63;;;12.20;99.90;;;;;;5050516;28;20554;-69
2022/09/26 10:36:32;;;;;;;7.38;3.58;;;12.20;99.90;;;;;;5050594;28;20037;-69
2022/09/26 10:41:48;;;;;;;7.90;3.17;;;12.10;99.90;;;;;;5034214;28;20080;-70
2022/09/26 10:44:29;;;;;;;11.30;4.00;;;12.20;99.90;;;;;;5034230;28;20106;-69
2022/09/26 10:47:07;;;;;;;8.63;3.97;;;12.20;99.90;;;;;;5050714;28;20049;-70
2022/09/26 10:49:54;;;;;;;9.20;3.78;;;12.20;99.90;;;;;;5049944;28;20503;-70
2022/09/26 10:52:32;;;;;;;8.35;3.60;;;12.20;99.90;;;;;;5033623;28;20040;-69
2022/09/26 10:55:18;;;;;;;9.75;3.70;;;12.20;99.90;;;;;;5051004;28;20489;-70
2022/09/26 10:57:56;;;;;;;8.05;3.63;;;12.20;99.90;;;;;;5042591;28;20057;-70
2022/09/26 11:00:39;;;;;;;8.98;3.70;;;12.20;99.90;;;;;;5050163;28;20524;-69
2022/09/26 11:03:13;;;;;;;8.23;3.38;;;12.20;99.90;;;;;;5032231;28;20064;-69
2022/09/26 11:06:02;;;;;;;6.95;3.47;;;12.20;99.90;;;;;;5031661;28;20490;-69
2022/09/26 11:08:33;;;;;;;7.10;3.28;;;12.20;99.90;;;;;;5042030;28;20040;-70
2022/09/26 11:11:11;;;;;;;6.88;3.40;;;12.20;99.90;;;;;;5054082;28;20473;-69
2022/09/26 11:14:02;;;;;;;9.50;3.60;;;12.20;99.90;;;;;;5048207;28;20087;-69
2022/09/26 11:16:36;;;;;;;6.70;3.10;;;12.10;99.90;;;;;;5050443;28;20111;-69
2022/09/26 11:19:19;;;;;;;6.30;3.53;;;12.10;99.90;;;;;;5045295;28;20405;-70
2022/09/26 11:22:03;;;;;;;10.45;3.80;;;12.20;99.90;;;;;;5055594;28;20075;-70
2022/09/26 11:24:36;;;;;;;6.10;2.97;;;12.20;99.90;;;;;;5034184;28;20041;-70
2022/09/26 11:27:10;;;;;;;7.57;3.08;;;12.10;99.90;;;;;;5046813;28;20048;-70
2022/09/26 11:30:02;;;;;;;7.45;3.30;;;12.10;99.90;;;;;;5055075;28;20496;-70
2022/09/26 11:32:39;;;;;;;7.00;3.30;;;12.10;99.90;;;;;;5055718;28;20091;-70
2022/09/26 11:35:12;;;;;;;5.05;2.67;;;12.10;99.90;;;;;;5070358;28;20059;-70
2022/09/26 11:38:02;;;;;;;6.13;2.85;;;12.20;99.90;;;;;;5055513;28;20078;-70
2022/09/26 11:40:46;;;;;;;6.82;3.60;;;12.20;99.90;;;;;;5053295;28;20088;-71
2022/09/26 11:43:49;;;;;;;6.55;3.50;;;12.20;99.90;;;;;;5043806;28;20068;-70
2022/09/26 11:46:30;;;;;;;7.10;3.00;;;12.20;99.90;;;;;;5034804;28;20045;-70
2022/09/26 11:49:28;;;;;;;4.32;2.70;;;12.10;99.90;;;;;;5024834;28;20041;-71
2022/09/26 11:52:11;;;;;;;4.50;2.63;;;12.20;99.90;;;;;;5055634;28;20076;-70
2022/09/26 11:54:57;;;;;;;6.32;3.05;;;12.20;99.90;;;;;;5018782;28;20056;-71
2022/09/26 11:57:58;;;;;;;5.90;3.00;;;12.20;99.90;;;;;;5052818;28;20040;-70
2022/09/26 12:00:37;;;;;;;5.90;2.90;;;12.20;99.90;;;;;;5030068;28;20045;-70
2022/09/26 12:03:03;;;;;;;6.55;2.70;;;12.20;99.90;;;;;;5045850;28;20026;-71
2022/09/26 12:05:43;;;;;;;6.30;3.25;;;12.30;99.90;;;;;;5053756;28;20446;-70
2022/09/26 12:08:40;;;;;;;6.10;3.30;;;12.30;99.90;;;;;;5020114;28;20120;-70
2022/09/26 12:11:18;;;;;;;5.88;3.00;;;12.30;99.90;;;;;;5034518;28;20513;-71
2022/09/26 12:14:14;;;;;;;5.93;3.10;;;12.30;99.90;;;;;;5038048;28;20040;-71
2022/09/26 12:16:48;;;;;;;5.93;3.10;;;12.30;99.90;;;;;;5038076;28;20052;-70
2022/09/26 12:19:16;;;;;;;6.03;3.00;;;12.30;99.90;;;;;;5037727;28;20045;-70
2022/09/26 12:25:10;;;;;;;6.03;2.70;;;12.30;99.90;;;;;;5050900;28;20106;-70
2022/09/26 12:28:14;;;;;;;5.43;2.53;;;12.30;99.90;;;;;;5055349;28;20116;-70
2022/09/26 12:31:12;;;;;;;6.78;3.13;;;12.30;99.90;;;;;;5019718;28;20085;-70
2022/09/26 12:33:54;;;;;;;5.88;2.78;;;12.30;99.90;;;;;;5034805;28;20071;-70
2022/09/26 12:36:46;;;;;;;8.23;3.27;;;12.30;99.90;;;;;;5053235;28;20119;-71
2022/09/26 12:39:18;;;;;;;5.97;2.78;;;12.30;99.90;;;;;;5036943;28;20174;-70
2022/09/26 12:42:05;;;;;;;4.75;2.35;;;12.30;99.90;;;;;;5044122;28;20095;-70
2022/09/26 12:45:01;;;;;;;5.32;2.70;;;12.40;99.90;;;;;;5049616;28;20129;-70
2022/09/26 12:47:36;;;;;;;5.70;2.47;;;12.40;99.90;;;;;;5034208;28;20042;-70
2022/09/26 12:50:42;;;;;;;6.18;2.53;;;12.40;99.90;;;;;;5047877;28;20045;-71
2022/09/26 12:53:47;;;;;;;5.53;2.58;;;12.40;99.90;;;;;;5038856;28;20118;-70
2022/09/26 12:56:25;;;;;;;4.70;2.20;;;12.40;99.90;;;;;;5034370;28;20041;-70
2022/09/26 12:59:12;;;;;;;5.68;2.55;;;12.50;99.90;;;;;;5053184;28;20069;-70
2022/09/26 13:01:57;;;;;;;4.43;2.25;;;12.40;99.90;;;;;;5053335;28;20033;-70
2022/09/26 13:04:51;;;;;;;4.70;2.17;;;12.40;99.90;;;;;;5053446;28;20043;-70
2022/09/26 13:07:17;;;;;;;6.25;2.50;;;12.50;99.90;;;;;;5036136;28;20033;-70
2022/09/26 13:09:45;;;;;;;5.70;2.70;;;12.40;99.90;;;;;;5053696;28;20055;-69
2022/09/26 13:12:45;;;;;;;4.93;2.30;;;12.50;99.90;;;;;;5045692;28;20120;-70
2022/09/26 13:15:25;;;;;;;6.55;2.30;;;12.50;99.90;;;;;;5019190;28;20102;-70
2022/09/26 13:18:00;;;;;;;5.30;2.03;;;12.50;99.90;;;;;;5063171;28;20048;-69
2022/09/26 13:20:36;;;;;;;3.78;2.08;;;12.60;99.90;;;;;;5051260;28;20049;-70
2022/09/26 13:23:09;;;;;;;4.38;2.38;;;12.60;99.90;;;;;;5052635;28;20041;-70
2022/09/26 13:25:44;;;;;;;4.78;2.10;;;12.60;99.90;;;;;;5021941;28;20037;-69
2022/09/26 13:28:15;;;;;;;2.83;1.70;;;12.70;99.90;;;;;;5052026;28;20048;-70
2022/09/26 13:30:49;;;;;;;3.63;2.10;;;12.70;99.90;;;;;;5052126;28;20040;-69
2022/09/26 13:33:26;;;;;;;3.72;2.13;;;12.70;99.90;;;;;;5019573;28;20102;-70